createdAt,value
2023-06-19T00:00:08.248Z,15.03
2023-06-19T00:00:40.935Z,15.12
2023-06-19T00:01:12.599Z,15.12
2023-06-19T00:01:44.311Z,15.08
2023-06-19T00:02:16.156Z,15.18
2023-06-19T00:02:48.052Z,15.12
2023-06-19T00:03:19.826Z,15.06
2023-06-19T00:03:51.528Z,15.05
2023-06-19T00:04:23.400Z,15.11
2023-06-19T00:04:55.147Z,15.15
2023-06-19T00:05:26.867Z,15.16
2023-06-19T00:05:58.535Z,15.16
2023-06-19T00:06:30.252Z,15.19
2023-06-19T00:07:02.399Z,15.23
2023-06-19T00:07:34.535Z,15.28
2023-06-19T00:08:07.702Z,15.33
2023-06-19T00:08:42.496Z,15.32
2023-06-19T00:09:14.441Z,15.29
2023-06-19T00:09:46.094Z,15.29
2023-06-19T00:10:17.933Z,15.31
2023-06-19T00:10:49.574Z,15.33
2023-06-19T00:11:21.348Z,15.35
2023-06-19T00:11:53.082Z,15.38
2023-06-19T00:12:24.706Z,15.39
2023-06-19T00:12:56.347Z,15.49
2023-06-19T00:13:27.998Z,15.52
2023-06-19T00:14:00.008Z,15.46
2023-06-19T00:14:31.844Z,15.44
2023-06-19T00:15:04.218Z,15.47
2023-06-19T00:15:35.852Z,15.43
2023-06-19T00:16:07.594Z,15.46
2023-06-19T00:16:39.615Z,15.36
2023-06-19T00:17:11.805Z,15.38
2023-06-19T00:17:43.486Z,15.40
2023-06-19T00:18:17.403Z,15.46
2023-06-19T00:18:49.382Z,15.49
2023-06-19T00:19:21.047Z,15.50
2023-06-19T00:19:52.778Z,15.57
2023-06-19T00:20:25.545Z,15.56
2023-06-19T00:20:57.990Z,15.50
2023-06-19T00:21:29.942Z,15.47
2023-06-19T00:22:01.635Z,15.47
2023-06-19T00:22:33.511Z,15.44
2023-06-19T00:23:05.122Z,15.35
2023-06-19T00:23:36.950Z,15.31
2023-06-19T00:24:08.795Z,15.32
2023-06-19T00:24:40.620Z,15.12
2023-06-19T00:25:12.315Z,15.19
2023-06-19T00:25:45.429Z,15.16
2023-06-19T00:26:17.129Z,15.16
2023-06-19T00:26:48.799Z,15.16
2023-06-19T00:27:20.478Z,15.15
2023-06-19T00:27:52.155Z,15.18
2023-06-19T00:28:23.805Z,15.19
2023-06-19T00:28:55.450Z,15.22
2023-06-19T00:29:29.284Z,15.32
2023-06-19T00:30:03.636Z,15.33
2023-06-19T00:30:35.313Z,15.39
2023-06-19T00:31:08.082Z,15.40
2023-06-19T00:31:39.733Z,15.40
2023-06-19T00:32:11.379Z,15.43
2023-06-19T00:32:50.599Z,15.46
2023-06-19T00:33:22.608Z,15.44
2023-06-19T00:33:54.831Z,15.44
2023-06-19T00:34:26.620Z,15.42
2023-06-19T00:34:58.252Z,15.40
2023-06-19T00:35:29.981Z,15.36
2023-06-19T00:36:02.503Z,15.36
2023-06-19T00:36:41.862Z,15.33
2023-06-19T00:37:14.487Z,15.29
2023-06-19T00:37:46.310Z,15.31
2023-06-19T00:38:18.079Z,15.29
2023-06-19T00:38:49.743Z,15.31
2023-06-19T00:39:21.366Z,15.29
2023-06-19T00:39:53.016Z,15.31
2023-06-19T00:40:30.569Z,15.32
2023-06-19T00:41:02.388Z,15.32
2023-06-19T00:41:36.403Z,15.31
2023-06-19T00:42:08.192Z,15.28
2023-06-19T00:42:39.803Z,15.23
2023-06-19T00:43:11.655Z,15.23
2023-06-19T00:43:43.524Z,15.18
2023-06-19T00:44:15.886Z,15.23
2023-06-19T00:44:47.535Z,15.26
2023-06-19T00:45:19.220Z,15.28
2023-06-19T00:45:51.144Z,15.26
2023-06-19T00:46:23.006Z,15.21
2023-06-19T00:47:05.126Z,15.13
2023-06-19T00:47:36.821Z,15.12
2023-06-19T00:48:09.163Z,15.13
2023-06-19T00:48:41.055Z,15.12
2023-06-19T00:49:14.438Z,15.16
2023-06-19T00:49:46.696Z,15.22
2023-06-19T00:50:18.418Z,15.13
2023-06-19T00:50:51.314Z,15.06
2023-06-19T00:51:23.002Z,15.03
2023-06-19T00:51:54.859Z,14.99
2023-06-19T00:52:26.487Z,15.02
2023-06-19T00:52:59.362Z,15.09
2023-06-19T00:53:32.078Z,15.18
2023-06-19T00:54:04.169Z,15.19
2023-06-19T00:54:36.057Z,15.16
2023-06-19T00:55:08.876Z,15.19
2023-06-19T00:55:40.699Z,15.22
2023-06-19T00:56:12.882Z,15.21
2023-06-19T00:56:45.450Z,15.22
2023-06-19T00:57:17.302Z,15.25
2023-06-19T00:57:50.767Z,15.26
2023-06-19T00:58:22.968Z,15.15
2023-06-19T00:58:55.077Z,15.18
2023-06-19T00:59:27.266Z,15.15
2023-06-19T00:59:59.762Z,15.13
2023-06-19T01:00:31.400Z,15.02
2023-06-19T01:01:09.227Z,15.03
2023-06-19T01:01:42.637Z,14.98
2023-06-19T01:02:14.455Z,14.98
2023-06-19T01:02:48.214Z,14.92
2023-06-19T01:03:20.093Z,14.89
2023-06-19T01:03:51.991Z,14.96
2023-06-19T01:04:23.773Z,15.02
2023-06-19T01:04:55.516Z,15.06
2023-06-19T01:05:27.369Z,15.11
2023-06-19T01:06:02.136Z,15.15
2023-06-19T01:07:00.547Z,15.18
2023-06-19T01:07:41.586Z,15.18
2023-06-19T01:08:36.780Z,15.16
2023-06-19T01:09:15.986Z,15.16
2023-06-19T01:09:52.244Z,15.18
2023-06-19T01:10:31.734Z,15.16
2023-06-19T01:11:11.829Z,15.18
2023-06-19T01:12:05.414Z,15.16
2023-06-19T01:12:51.967Z,15.05
2023-06-19T01:13:51.989Z,15.11
2023-06-19T01:14:27.837Z,14.99
2023-06-19T01:15:03.998Z,15.03
2023-06-19T01:15:37.977Z,15.06
2023-06-19T01:16:10.993Z,15.05
2023-06-19T01:16:44.273Z,15.02
2023-06-19T01:17:17.050Z,15.05
2023-06-19T01:17:49.855Z,15.01
2023-06-19T01:18:22.477Z,14.92
2023-06-19T01:18:54.542Z,14.95
2023-06-19T01:19:27.037Z,14.98
2023-06-19T01:19:59.994Z,14.96
2023-06-19T01:20:32.269Z,14.99
2023-06-19T01:21:17.549Z,14.96
2023-06-19T01:21:51.016Z,14.96
2023-06-19T01:22:30.570Z,14.88
2023-06-19T01:23:09.520Z,14.81
2023-06-19T01:23:41.394Z,14.81
2023-06-19T01:24:13.031Z,14.75
2023-06-19T01:24:44.802Z,14.77
2023-06-19T01:25:16.848Z,14.70
2023-06-19T01:25:48.973Z,14.64
2023-06-19T01:26:27.759Z,14.53
2023-06-19T01:26:59.406Z,14.64
2023-06-19T01:27:31.341Z,14.64
2023-06-19T01:28:06.679Z,14.65
2023-06-19T01:28:41.428Z,14.64
2023-06-19T01:29:15.379Z,14.60
2023-06-19T01:29:47.207Z,14.64
2023-06-19T01:30:19.050Z,14.65
2023-06-19T01:30:51.124Z,14.70
2023-06-19T01:31:28.209Z,14.73
2023-06-19T01:32:05.448Z,14.75
2023-06-19T01:32:40.265Z,14.81
2023-06-19T01:33:33.509Z,14.68
2023-06-19T01:34:07.950Z,14.73
2023-06-19T01:34:41.067Z,14.73
2023-06-19T01:35:14.893Z,14.73
2023-06-19T01:35:48.949Z,14.81
2023-06-19T01:36:22.241Z,14.85
2023-06-19T01:36:58.288Z,14.92
2023-06-19T01:37:30.231Z,14.94
2023-06-19T01:38:03.491Z,14.94
2023-06-19T01:38:36.639Z,14.95
2023-06-19T01:39:10.185Z,14.85
2023-06-19T01:39:42.673Z,14.80
2023-06-19T01:40:16.585Z,14.75
2023-06-19T01:40:50.545Z,14.77
2023-06-19T01:41:23.922Z,14.77
2023-06-19T01:41:56.576Z,14.77
2023-06-19T01:42:28.922Z,14.80
2023-06-19T01:43:05.720Z,14.84
2023-06-19T01:43:38.376Z,14.81
2023-06-19T01:44:10.345Z,14.80
2023-06-19T01:44:42.117Z,14.88
2023-06-19T01:45:14.150Z,14.88
2023-06-19T01:45:45.879Z,14.91
2023-06-19T01:46:17.612Z,14.91
2023-06-19T01:46:51.357Z,14.94
2023-06-19T01:47:23.204Z,14.96
2023-06-19T01:47:55.332Z,14.98
2023-06-19T01:48:27.086Z,14.99
2023-06-19T01:48:58.912Z,14.98
2023-06-19T01:49:30.627Z,14.96
2023-06-19T01:50:02.458Z,15.01
2023-06-19T01:50:34.096Z,14.95
2023-06-19T01:51:05.884Z,14.91
2023-06-19T01:51:37.653Z,14.87
2023-06-19T01:52:09.847Z,14.81
2023-06-19T01:52:41.507Z,14.82
2023-06-19T01:53:13.219Z,14.82
2023-06-19T01:53:44.864Z,14.81
2023-06-19T01:54:16.714Z,14.75
2023-06-19T01:54:48.382Z,14.77
2023-06-19T01:55:20.971Z,14.71
2023-06-19T01:55:52.803Z,14.65
2023-06-19T01:56:25.369Z,14.64
2023-06-19T01:56:58.606Z,14.54
2023-06-19T01:57:30.568Z,14.44
2023-06-19T01:58:02.248Z,14.43
2023-06-19T01:58:33.891Z,14.40
2023-06-19T01:59:05.563Z,14.34
2023-06-19T01:59:37.183Z,14.16
2023-06-19T02:00:11.264Z,14.15
2023-06-19T02:00:43.051Z,14.13
2023-06-19T02:01:15.090Z,14.12
2023-06-19T02:01:46.809Z,14.13
2023-06-19T02:02:18.552Z,14.10
2023-06-19T02:02:50.474Z,14.10
2023-06-19T02:03:22.449Z,14.13
2023-06-19T02:03:54.224Z,14.13
2023-06-19T02:04:25.907Z,14.15
2023-06-19T02:04:57.582Z,14.15
2023-06-19T02:05:29.188Z,14.13
2023-06-19T02:06:00.849Z,14.16
2023-06-19T02:06:32.622Z,14.22
2023-06-19T02:07:04.506Z,14.10
2023-06-19T02:07:36.239Z,14.19
2023-06-19T02:08:08.030Z,14.22
2023-06-19T02:08:39.667Z,14.24
2023-06-19T02:09:12.103Z,14.20
2023-06-19T02:09:43.925Z,14.19
2023-06-19T02:10:15.645Z,14.27
2023-06-19T02:10:47.451Z,14.33
2023-06-19T02:11:19.120Z,14.36
2023-06-19T02:11:50.874Z,14.38
2023-06-19T02:12:22.705Z,14.41
2023-06-19T02:12:54.476Z,14.43
2023-06-19T02:13:26.145Z,14.43
2023-06-19T02:13:57.789Z,14.47
2023-06-19T02:14:29.460Z,14.45
2023-06-19T02:15:01.134Z,14.45
2023-06-19T02:15:32.972Z,14.45
2023-06-19T02:16:05.145Z,14.48
2023-06-19T02:16:36.831Z,14.51
2023-06-19T02:17:08.550Z,14.51
2023-06-19T02:17:40.297Z,14.51
2023-06-19T02:18:12.097Z,14.48
2023-06-19T02:18:43.785Z,14.48
2023-06-19T02:19:15.422Z,14.56
2023-06-19T02:19:47.474Z,14.59
2023-06-19T02:20:19.140Z,14.61
2023-06-19T02:20:50.757Z,14.64
2023-06-19T02:21:22.410Z,14.65
2023-06-19T02:21:54.073Z,14.68
2023-06-19T02:22:25.764Z,14.71
2023-06-19T02:22:57.630Z,14.67
2023-06-19T02:23:29.354Z,14.61
2023-06-19T02:24:01.046Z,14.60
2023-06-19T02:24:32.815Z,14.67
2023-06-19T02:25:05.218Z,14.60
2023-06-19T02:25:37.339Z,14.60
2023-06-19T02:26:09.012Z,14.56
2023-06-19T02:26:40.737Z,14.45
2023-06-19T02:27:12.378Z,14.48
2023-06-19T02:27:44.231Z,14.44
2023-06-19T02:28:17.134Z,14.41
2023-06-19T02:28:48.809Z,14.43
2023-06-19T02:29:21.161Z,14.44
2023-06-19T02:29:52.829Z,14.44
2023-06-19T02:30:24.804Z,14.41
2023-06-19T02:30:56.769Z,14.43
2023-06-19T02:31:28.431Z,14.37
2023-06-19T02:32:00.130Z,14.36
2023-06-19T02:32:32.154Z,14.30
2023-06-19T02:33:03.999Z,14.26
2023-06-19T02:33:35.741Z,14.24
2023-06-19T02:34:07.367Z,14.26
2023-06-19T02:34:39.035Z,14.17
2023-06-19T02:35:12.724Z,14.23
2023-06-19T02:35:45.662Z,14.24
2023-06-19T02:36:20.578Z,14.19
2023-06-19T02:36:52.372Z,14.16
2023-06-19T02:37:24.022Z,14.13
2023-06-19T02:37:55.691Z,14.15
2023-06-19T02:38:27.623Z,14.03
2023-06-19T02:38:59.285Z,13.92
2023-06-19T02:39:30.965Z,13.89
2023-06-19T02:40:06.418Z,13.92
2023-06-19T02:40:38.099Z,13.98
2023-06-19T02:41:09.771Z,14.01
2023-06-19T02:41:44.353Z,13.95
2023-06-19T02:42:16.023Z,13.83
2023-06-19T02:42:47.685Z,13.89
2023-06-19T02:43:19.302Z,13.86
2023-06-19T02:43:51.049Z,13.90
2023-06-19T02:44:22.683Z,13.93
2023-06-19T02:44:54.354Z,13.83
2023-06-19T02:45:26.031Z,13.86
2023-06-19T02:45:57.762Z,13.68
2023-06-19T02:46:29.598Z,13.76
2023-06-19T02:47:01.336Z,13.79
2023-06-19T02:47:33.904Z,13.78
2023-06-19T02:48:06.087Z,13.75
2023-06-19T02:48:37.941Z,13.78
2023-06-19T02:49:09.615Z,13.81
2023-06-19T02:49:41.237Z,13.83
2023-06-19T02:50:12.890Z,13.79
2023-06-19T02:50:44.549Z,13.78
2023-06-19T02:51:16.341Z,13.81
2023-06-19T02:51:48.009Z,13.83
2023-06-19T02:52:19.701Z,13.85
2023-06-19T02:52:51.324Z,13.90
2023-06-19T02:53:23.162Z,13.93
2023-06-19T02:53:54.826Z,13.99
2023-06-19T02:54:26.487Z,14.01
2023-06-19T02:54:58.205Z,14.05
2023-06-19T02:55:29.836Z,14.05
2023-06-19T02:56:01.523Z,14.01
2023-06-19T02:56:33.203Z,14.02
2023-06-19T02:57:05.206Z,13.98
2023-06-19T02:57:36.842Z,13.99
2023-06-19T02:58:08.465Z,14.08
2023-06-19T02:58:40.424Z,14.10
2023-06-19T02:59:12.114Z,14.16
2023-06-19T02:59:43.752Z,14.22
2023-06-19T03:00:15.979Z,14.23
2023-06-19T03:00:47.828Z,14.24
2023-06-19T03:01:19.473Z,14.29
2023-06-19T03:01:51.288Z,14.33
2023-06-19T03:02:23.269Z,14.38
2023-06-19T03:02:55.143Z,14.43
2023-06-19T03:03:27.245Z,14.48
2023-06-19T03:03:58.990Z,14.56
2023-06-19T03:04:30.704Z,14.59
2023-06-19T03:05:03.615Z,14.61
2023-06-19T03:05:35.311Z,14.63
2023-06-19T03:06:07.476Z,14.63
2023-06-19T03:06:41.133Z,14.63
2023-06-19T03:07:15.038Z,14.67
2023-06-19T03:07:47.104Z,14.71
2023-06-19T03:08:18.854Z,14.73
2023-06-19T03:08:50.467Z,14.78
2023-06-19T03:09:22.126Z,14.78
2023-06-19T03:09:53.770Z,14.78
2023-06-19T03:10:25.710Z,14.78
2023-06-19T03:10:57.663Z,14.80
2023-06-19T03:11:29.304Z,14.80
2023-06-19T03:12:00.957Z,14.82
2023-06-19T03:12:32.634Z,14.82
2023-06-19T03:13:04.325Z,14.87
2023-06-19T03:13:53.245Z,14.91
2023-06-19T03:14:24.955Z,14.94
2023-06-19T03:14:56.584Z,14.91
2023-06-19T03:15:28.315Z,14.95
2023-06-19T03:15:59.996Z,14.95
2023-06-19T03:16:31.673Z,14.94
2023-06-19T03:17:03.798Z,14.85
2023-06-19T03:17:35.728Z,14.88
2023-06-19T03:18:09.511Z,14.89
2023-06-19T03:18:42.787Z,14.89
2023-06-19T03:19:14.451Z,14.82
2023-06-19T03:19:46.122Z,14.84
2023-06-19T03:20:17.749Z,14.87
2023-06-19T03:20:49.477Z,14.91
2023-06-19T03:21:21.350Z,14.88
2023-06-19T03:21:53.158Z,14.85
2023-06-19T03:22:24.802Z,14.92
2023-06-19T03:22:56.508Z,14.85
2023-06-19T03:23:28.193Z,14.89
2023-06-19T03:23:59.846Z,14.96
2023-06-19T03:24:31.686Z,14.95
2023-06-19T03:25:04.255Z,14.98
2023-06-19T03:25:36.465Z,15.02
2023-06-19T03:26:11.548Z,14.98
2023-06-19T03:26:43.262Z,14.98
2023-06-19T03:27:14.918Z,14.98
2023-06-19T03:27:46.601Z,14.99
2023-06-19T03:28:18.278Z,15.02
2023-06-19T03:28:49.896Z,15.03
2023-06-19T03:29:21.574Z,15.05
2023-06-19T03:29:54.494Z,15.11
2023-06-19T03:30:26.274Z,15.03
2023-06-19T03:30:58.112Z,14.98
2023-06-19T03:31:29.768Z,15.02
2023-06-19T03:32:01.408Z,14.95
2023-06-19T03:32:36.214Z,15.02
2023-06-19T03:33:07.977Z,15.02
2023-06-19T03:33:39.738Z,15.03
2023-06-19T03:34:11.423Z,15.02
2023-06-19T03:34:43.398Z,15.03
2023-06-19T03:35:16.069Z,15.05
2023-06-19T03:35:47.852Z,15.09
2023-06-19T03:36:19.628Z,15.11
2023-06-19T03:36:51.320Z,15.08
2023-06-19T03:37:22.986Z,15.06
2023-06-19T03:37:54.721Z,15.08
2023-06-19T03:38:26.427Z,15.12
2023-06-19T03:38:58.067Z,15.09
2023-06-19T03:39:29.709Z,15.13
2023-06-19T03:40:01.584Z,15.15
2023-06-19T03:40:33.243Z,15.13
2023-06-19T03:41:05.052Z,15.18
2023-06-19T03:41:36.784Z,15.18
2023-06-19T03:42:08.864Z,15.15
2023-06-19T03:42:41.408Z,15.13
2023-06-19T03:43:13.081Z,15.16
2023-06-19T03:43:44.735Z,15.22
2023-06-19T03:44:16.360Z,15.25
2023-06-19T03:44:48.051Z,15.26
2023-06-19T03:45:19.692Z,15.26
2023-06-19T03:45:51.353Z,15.26
2023-06-19T03:46:22.987Z,15.28
2023-06-19T03:46:54.704Z,15.38
2023-06-19T03:47:26.454Z,15.33
2023-06-19T03:47:58.173Z,15.33
2023-06-19T03:48:29.883Z,15.33
2023-06-19T03:49:01.620Z,15.42
2023-06-19T03:49:33.284Z,15.43
2023-06-19T03:50:19.800Z,15.50
2023-06-19T03:50:52.065Z,15.57
2023-06-19T03:51:23.758Z,15.60
2023-06-19T03:51:58.377Z,15.64
2023-06-19T03:52:30.072Z,15.63
2023-06-19T03:53:01.785Z,15.64
2023-06-19T03:53:33.432Z,15.70
2023-06-19T03:54:05.276Z,15.70
2023-06-19T03:54:36.895Z,15.71
2023-06-19T03:55:08.727Z,15.76
2023-06-19T03:55:40.435Z,15.74
2023-06-19T03:56:12.127Z,15.67
2023-06-19T03:56:43.772Z,15.71
2023-06-19T03:57:15.420Z,15.74
2023-06-19T03:57:47.114Z,15.63
2023-06-19T03:58:18.736Z,15.64
2023-06-19T03:58:50.534Z,15.64
2023-06-19T03:59:22.229Z,15.67
2023-06-19T03:59:55.071Z,15.74
2023-06-19T04:00:27.127Z,15.77
2023-06-19T04:00:58.940Z,15.76
2023-06-19T04:01:30.599Z,15.79
2023-06-19T04:02:02.460Z,15.83
2023-06-19T04:02:34.692Z,15.84
2023-06-19T04:03:06.502Z,15.86
2023-06-19T04:03:40.579Z,15.90
2023-06-19T04:04:13.850Z,15.87
2023-06-19T04:04:45.678Z,15.81
2023-06-19T04:05:17.529Z,15.80
2023-06-19T04:05:49.221Z,15.79
2023-06-19T04:06:20.909Z,15.74
2023-06-19T04:06:52.577Z,15.84
2023-06-19T04:07:24.251Z,15.89
2023-06-19T04:07:55.960Z,15.90
2023-06-19T04:08:27.663Z,15.96
2023-06-19T04:08:59.305Z,16.00
2023-06-19T04:09:30.918Z,16.04
2023-06-19T04:10:02.600Z,16.10
2023-06-19T04:10:36.070Z,16.10
2023-06-19T04:11:07.965Z,16.17
2023-06-19T04:11:39.636Z,16.20
2023-06-19T04:12:11.391Z,16.15
2023-06-19T04:12:43.168Z,16.22
2023-06-19T04:13:14.891Z,16.24
2023-06-19T04:13:46.562Z,16.25
2023-06-19T04:14:18.449Z,16.28
2023-06-19T04:14:50.162Z,16.31
2023-06-19T04:15:21.997Z,16.32
2023-06-19T04:15:53.744Z,16.28
2023-06-19T04:16:25.478Z,16.22
2023-06-19T04:16:57.184Z,16.15
2023-06-19T04:17:28.962Z,16.12
2023-06-19T04:18:02.158Z,16.14
2023-06-19T04:18:33.837Z,16.15
2023-06-19T04:19:05.506Z,16.17
2023-06-19T04:19:37.164Z,16.15
2023-06-19T04:20:12.690Z,16.15
2023-06-19T04:20:44.843Z,16.11
2023-06-19T04:21:17.378Z,16.14
2023-06-19T04:21:49.013Z,16.17
2023-06-19T04:22:20.668Z,16.21
2023-06-19T04:22:52.325Z,16.15
2023-06-19T04:23:23.969Z,16.18
2023-06-19T04:23:55.733Z,16.22
2023-06-19T04:24:27.545Z,16.24
2023-06-19T04:24:59.264Z,16.26
2023-06-19T04:25:30.934Z,16.25
2023-06-19T04:26:03.285Z,16.33
2023-06-19T04:26:34.962Z,16.36
2023-06-19T04:27:09.260Z,16.42
2023-06-19T04:27:41.032Z,16.44
2023-06-19T04:28:12.711Z,16.44
2023-06-19T04:28:44.454Z,16.42
2023-06-19T04:29:18.097Z,16.44
2023-06-19T04:29:49.832Z,16.33
2023-06-19T04:30:24.919Z,16.38
2023-06-19T04:31:01.452Z,16.41
2023-06-19T04:31:33.780Z,16.47
2023-06-19T04:32:12.175Z,16.42
2023-06-19T04:32:44.188Z,16.48
2023-06-19T04:33:16.084Z,16.52
2023-06-19T04:33:47.882Z,16.53
2023-06-19T04:34:23.005Z,16.56
2023-06-19T04:34:54.694Z,16.62
2023-06-19T04:35:26.504Z,16.60
2023-06-19T04:35:58.176Z,16.70
2023-06-19T04:36:32.928Z,16.72
2023-06-19T04:37:04.905Z,16.70
2023-06-19T04:37:36.988Z,16.76
2023-06-19T04:38:09.420Z,16.76
2023-06-19T04:38:41.062Z,16.75
2023-06-19T04:39:12.663Z,16.75
2023-06-19T04:39:44.335Z,16.76
2023-06-19T04:40:16.484Z,16.77
2023-06-19T04:40:48.140Z,16.80
2023-06-19T04:41:19.810Z,16.86
2023-06-19T04:41:51.554Z,16.87
2023-06-19T04:42:23.216Z,16.90
2023-06-19T04:42:55.066Z,16.86
2023-06-19T04:43:26.757Z,16.89
2023-06-19T04:43:58.389Z,16.91
2023-06-19T04:44:34.631Z,16.94
2023-06-19T04:45:08.550Z,16.93
2023-06-19T04:45:40.291Z,16.91
2023-06-19T04:46:12.003Z,16.90
2023-06-19T04:46:45.426Z,16.93
2023-06-19T04:47:19.559Z,17.00
2023-06-19T04:47:54.049Z,17.06
2023-06-19T04:48:27.188Z,17.07
2023-06-19T04:48:59.047Z,17.10
2023-06-19T04:49:31.749Z,17.10
2023-06-19T04:50:03.721Z,17.08
2023-06-19T04:50:36.024Z,17.11
2023-06-19T04:51:07.712Z,17.16
2023-06-19T04:51:39.529Z,17.17
2023-06-19T04:52:12.475Z,17.26
2023-06-19T04:52:44.376Z,17.31
2023-06-19T04:53:15.996Z,17.28
2023-06-19T04:53:48.724Z,17.34
2023-06-19T04:54:20.439Z,17.37
2023-06-19T04:54:52.211Z,17.41
2023-06-19T04:55:26.579Z,17.39
2023-06-19T04:55:59.653Z,17.41
2023-06-19T04:56:33.398Z,17.41
2023-06-19T04:57:05.504Z,17.39
2023-06-19T04:57:38.231Z,17.44
2023-06-19T04:58:10.033Z,17.48
2023-06-19T04:58:47.123Z,17.54
2023-06-19T04:59:19.353Z,17.54
2023-06-19T04:59:51.022Z,17.57
2023-06-19T05:00:24.714Z,17.59
2023-06-19T05:00:56.721Z,17.64
2023-06-19T05:01:31.602Z,17.68
2023-06-19T05:02:03.496Z,17.69
2023-06-19T05:02:35.625Z,17.72
2023-06-19T05:03:07.382Z,17.81
2023-06-19T05:03:39.286Z,17.82
2023-06-19T05:04:12.485Z,17.85
2023-06-19T05:04:44.768Z,17.89
2023-06-19T05:05:17.288Z,17.92
2023-06-19T05:05:49.035Z,17.99
2023-06-19T05:06:20.646Z,17.97
2023-06-19T05:06:52.454Z,17.95
2023-06-19T05:07:24.104Z,17.99
2023-06-19T05:07:55.809Z,18.03
2023-06-19T05:08:27.446Z,18.07
2023-06-19T05:08:59.118Z,18.13
2023-06-19T05:09:30.782Z,18.16
2023-06-19T05:10:02.479Z,18.16
2023-06-19T05:10:34.136Z,18.18
2023-06-19T05:11:05.811Z,18.22
2023-06-19T05:11:37.838Z,18.26
2023-06-19T05:12:10.823Z,18.27
2023-06-19T05:12:43.443Z,18.24
2023-06-19T05:13:15.152Z,18.30
2023-06-19T05:13:46.872Z,18.26
2023-06-19T05:14:18.532Z,18.30
2023-06-19T05:14:50.206Z,18.34
2023-06-19T05:15:21.930Z,18.38
2023-06-19T05:15:53.645Z,18.41
2023-06-19T05:16:26.166Z,18.47
2023-06-19T05:16:57.891Z,18.48
2023-06-19T05:17:29.717Z,18.53
2023-06-19T05:18:01.536Z,18.58
2023-06-19T05:18:33.359Z,18.64
2023-06-19T05:19:05.200Z,18.67
2023-06-19T05:19:37.235Z,18.67
2023-06-19T05:20:09.457Z,18.71
2023-06-19T05:20:41.161Z,18.75
2023-06-19T05:21:12.838Z,18.83
2023-06-19T05:21:44.482Z,18.83
2023-06-19T05:22:16.097Z,18.83
2023-06-19T05:22:47.794Z,18.87
2023-06-19T05:23:19.463Z,18.95
2023-06-19T05:23:52.075Z,18.92
2023-06-19T05:24:23.762Z,18.98
2023-06-19T05:24:55.489Z,18.99
2023-06-19T05:25:27.214Z,19.04
2023-06-19T05:25:58.826Z,19.06
2023-06-19T05:26:30.494Z,19.13
2023-06-19T05:27:02.272Z,19.12
2023-06-19T05:27:34.283Z,19.19
2023-06-19T05:28:06.371Z,19.29
2023-06-19T05:28:38.069Z,19.39
2023-06-19T05:29:09.943Z,19.42
2023-06-19T05:29:41.653Z,19.40
2023-06-19T05:30:13.651Z,19.46
2023-06-19T05:30:45.765Z,19.50
2023-06-19T05:31:17.432Z,19.52
2023-06-19T05:31:51.000Z,19.52
2023-06-19T05:32:22.641Z,19.56
2023-06-19T05:32:54.403Z,19.60
2023-06-19T05:33:26.121Z,19.62
2023-06-19T05:33:59.717Z,19.66
2023-06-19T05:34:31.435Z,19.69
2023-06-19T05:35:03.128Z,19.75
2023-06-19T05:35:34.820Z,19.74
2023-06-19T05:36:06.585Z,19.74
2023-06-19T05:36:38.213Z,19.81
2023-06-19T05:37:09.852Z,19.81
2023-06-19T05:37:44.117Z,19.83
2023-06-19T05:38:16.440Z,19.90
2023-06-19T05:38:48.207Z,19.93
2023-06-19T05:39:20.143Z,19.95
2023-06-19T05:39:51.755Z,20.00
2023-06-19T05:40:23.617Z,20.07
2023-06-19T05:40:55.399Z,20.14
2023-06-19T05:41:27.032Z,20.10
2023-06-19T05:41:58.744Z,20.18
2023-06-19T05:42:30.408Z,20.24
2023-06-19T05:43:02.333Z,20.29
2023-06-19T05:43:33.938Z,20.38
2023-06-19T05:44:05.654Z,20.43
2023-06-19T05:44:37.303Z,20.51
2023-06-19T05:45:09.250Z,20.53
2023-06-19T05:45:40.927Z,20.60
2023-06-19T05:46:13.127Z,20.66
2023-06-19T05:46:44.916Z,20.68
2023-06-19T05:47:18.230Z,20.73
2023-06-19T05:47:50.119Z,20.77
2023-06-19T05:48:21.808Z,20.80
2023-06-19T05:48:55.590Z,20.83
2023-06-19T05:49:27.262Z,20.90
2023-06-19T05:49:59.174Z,20.97
2023-06-19T05:50:31.958Z,21.03
2023-06-19T05:51:03.641Z,21.10
2023-06-19T05:51:35.327Z,21.18
2023-06-19T05:52:07.328Z,21.24
2023-06-19T05:52:42.809Z,21.37
2023-06-19T05:53:15.861Z,21.42
2023-06-19T05:53:47.868Z,21.45
2023-06-19T05:54:19.482Z,21.45
2023-06-19T05:54:51.508Z,21.51
2023-06-19T05:55:23.266Z,21.65
2023-06-19T05:55:54.938Z,21.75
2023-06-19T05:56:26.552Z,21.82
2023-06-19T05:56:58.212Z,21.88
2023-06-19T05:57:29.895Z,22.00
2023-06-19T05:58:02.026Z,22.03
2023-06-19T05:58:33.917Z,22.09
2023-06-19T05:59:05.686Z,22.17
2023-06-19T05:59:37.344Z,22.16
2023-06-19T06:00:12.437Z,22.20
2023-06-19T06:00:44.038Z,22.34
2023-06-19T06:01:15.766Z,22.44
2023-06-19T06:01:47.596Z,22.56
2023-06-19T06:02:20.721Z,22.64
2023-06-19T06:02:53.026Z,22.58
2023-06-19T06:03:28.742Z,22.51
2023-06-19T06:04:02.716Z,22.61
2023-06-19T06:04:35.708Z,22.72
2023-06-19T06:05:09.768Z,22.77
2023-06-19T06:05:41.501Z,22.85
2023-06-19T06:06:13.325Z,22.92
2023-06-19T06:06:44.983Z,22.92
2023-06-19T06:07:16.658Z,23.01
2023-06-19T06:07:48.328Z,22.98
2023-06-19T06:08:20.128Z,22.96
2023-06-19T06:08:52.547Z,22.88
2023-06-19T06:09:24.162Z,22.77
2023-06-19T06:09:55.761Z,22.74
2023-06-19T06:10:27.891Z,22.94
2023-06-19T06:10:59.870Z,22.99
2023-06-19T06:11:31.557Z,23.02
2023-06-19T06:12:03.344Z,23.22
2023-06-19T06:12:35.916Z,23.42
2023-06-19T06:13:07.582Z,23.49
2023-06-19T06:13:39.349Z,23.47
2023-06-19T06:14:13.291Z,23.41
2023-06-19T06:14:45.251Z,23.50
2023-06-19T06:15:17.264Z,23.67
2023-06-19T06:15:48.984Z,23.67
2023-06-19T06:16:20.825Z,23.71
2023-06-19T06:16:53.083Z,23.77
2023-06-19T06:17:24.757Z,23.77
2023-06-19T06:17:56.470Z,23.77
2023-06-19T06:18:28.826Z,23.77
2023-06-19T06:19:00.471Z,23.75
2023-06-19T06:19:33.188Z,23.73
2023-06-19T06:20:14.734Z,23.75
2023-06-19T06:20:46.348Z,23.67
2023-06-19T06:21:18.135Z,23.63
2023-06-19T06:21:50.507Z,23.60
2023-06-19T06:22:22.200Z,23.62
2023-06-19T06:22:54.448Z,23.35
2023-06-19T06:23:26.680Z,23.27
2023-06-19T06:23:58.326Z,23.33
2023-06-19T06:24:30.031Z,23.33
2023-06-19T06:25:01.695Z,23.35
2023-06-19T06:25:33.312Z,23.41
2023-06-19T06:26:04.990Z,23.46
2023-06-19T06:26:38.130Z,23.73
2023-06-19T06:27:09.972Z,23.90
2023-06-19T06:27:42.358Z,23.93
2023-06-19T06:28:14.019Z,23.91
2023-06-19T06:28:45.697Z,23.97
2023-06-19T06:29:17.516Z,23.96
2023-06-19T06:29:49.130Z,24.07
2023-06-19T06:30:20.840Z,23.97
2023-06-19T06:30:52.885Z,23.94
2023-06-19T06:31:24.730Z,23.98
2023-06-19T06:32:10.370Z,24.01
2023-06-19T06:32:42.134Z,24.12
2023-06-19T06:33:13.824Z,24.21
2023-06-19T06:33:45.687Z,24.26
2023-06-19T06:34:17.321Z,24.31
2023-06-19T06:34:49.012Z,24.24
2023-06-19T06:35:20.624Z,24.33
2023-06-19T06:35:54.796Z,24.45
2023-06-19T06:36:36.142Z,24.33
2023-06-19T06:37:08.707Z,24.42
2023-06-19T06:37:40.504Z,24.48
2023-06-19T06:38:12.342Z,24.53
2023-06-19T06:38:43.984Z,24.65
2023-06-19T06:39:15.617Z,24.73
2023-06-19T06:39:47.245Z,24.58
2023-06-19T06:40:19.031Z,24.49
2023-06-19T06:40:51.667Z,24.65
2023-06-19T06:41:23.275Z,24.49
2023-06-19T06:41:55.037Z,24.14
2023-06-19T06:42:26.708Z,24.20
2023-06-19T06:42:58.444Z,24.28
2023-06-19T06:43:30.154Z,24.31
2023-06-19T06:44:02.317Z,24.29
2023-06-19T06:44:33.998Z,24.28
2023-06-19T06:45:07.751Z,24.51
2023-06-19T06:45:39.545Z,24.62
2023-06-19T06:46:11.688Z,24.76
2023-06-19T06:46:43.325Z,24.79
2023-06-19T06:47:15.051Z,24.77
2023-06-19T06:47:46.726Z,24.77
2023-06-19T06:48:18.475Z,24.84
2023-06-19T06:48:51.221Z,24.90
2023-06-19T06:49:23.527Z,24.75
2023-06-19T06:49:55.228Z,24.70
2023-06-19T06:50:27.240Z,24.69
2023-06-19T06:51:02.534Z,24.70
2023-06-19T06:51:34.238Z,24.82
2023-06-19T06:52:06.569Z,24.89
2023-06-19T06:52:38.808Z,24.72
2023-06-19T06:53:10.469Z,24.80
2023-06-19T06:53:42.159Z,24.84
2023-06-19T06:54:13.774Z,24.79
2023-06-19T06:54:46.143Z,24.83
2023-06-19T06:55:17.869Z,24.53
2023-06-19T06:55:49.495Z,24.62
2023-06-19T06:56:21.180Z,24.36
2023-06-19T06:56:57.260Z,24.11
2023-06-19T06:57:29.149Z,24.35
2023-06-19T06:58:00.808Z,24.47
2023-06-19T06:58:32.434Z,24.61
2023-06-19T06:59:04.091Z,24.62